Time;durP1;ratioP1;P1;durP2;ratioP2;P2;SDS_P1;SDS_P2;PMS_P1;PMS_P2;Temp;Humidity;BMP_temperature;BMP_pressure;BME280_temperature;BME280_humidity;BME280_pressure;Samples;Min_cycle;Max_cycle;Signal;HPM_P1;HPM_P2
2021/12/11 00:00:04;;;;;;;;;3.25;1.75;;;;;;;;4954409;28;45767;-71
2021/12/11 00:02:32;;;;;;;;;2.50;2.00;;;;;;;;4955632;28;45367;-71
2021/12/11 00:04:58;;;;;;;;;7.50;2.00;;;;;;;;4951158;28;45437;-70
2021/12/11 00:07:26;;;;;;;;;3.25;1.00;;;;;;;;4953358;28;47185;-71
2021/12/11 00:09:59;;;;;;;;;3.00;1.00;;;;;;;;4954074;28;46500;-71
2021/12/11 00:12:27;;;;;;;;;6.00;2.00;;;;;;;;4954967;28;45420;-70
2021/12/11 00:14:59;;;;;;;;;2.75;1.00;;;;;;;;4950653;28;45593;-71
2021/12/11 00:17:31;;;;;;;;;3.00;1.50;;;;;;;;4949336;28;45634;-71
2021/12/11 00:19:56;;;;;;;;;5.50;2.00;;;;;;;;4946793;28;45327;-71
2021/12/11 00:22:26;;;;;;;;;2.00;1.33;;;;;;;;4955473;28;45349;-71
2021/12/11 00:24:51;;;;;;;;;1.25;1.25;;;;;;;;4958698;28;45617;-70
2021/12/11 00:27:22;;;;;;;;;4.75;2.00;;;;;;;;4959544;28;45450;-71
2021/12/11 00:29:47;;;;;;;;;3.25;2.00;;;;;;;;4957584;28;45400;-70
2021/12/11 00:32:17;;;;;;;;;1.75;1.75;;;;;;;;4960889;28;45417;-71
2021/12/11 00:34:46;;;;;;;;;1.25;1.00;;;;;;;;4957812;28;45531;-71
2021/12/11 00:37:13;;;;;;;;;5.00;1.00;;;;;;;;4957874;28;47084;-70
2021/12/11 00:39:47;;;;;;;;;5.00;2.00;;;;;;;;4954179;28;46092;-70
2021/12/11 00:42:12;;;;;;;;;2.50;2.00;;;;;;;;4954907;28;45491;-70
2021/12/11 00:44:38;;;;;;;;;2.00;1.25;;;;;;;;4958406;28;45472;-71
2021/12/11 00:47:08;;;;;;;;;3.00;1.00;;;;;;;;4957327;28;47112;-71
2021/12/11 00:49:34;;;;;;;;;4.00;1.00;;;;;;;;4957435;28;45446;-70
2021/12/11 00:52:00;;;;;;;;;2.00;1.00;;;;;;;;4957046;28;45432;-70
2021/12/11 00:54:25;;;;;;;;;2.00;2.00;;;;;;;;4957526;28;45416;-71
2021/12/11 00:56:50;;;;;;;;;4.67;2.33;;;;;;;;4958174;28;45354;-70
2021/12/11 00:59:17;;;;;;;;;1.00;1.00;;;;;;;;4957861;28;45317;-71
2021/12/11 01:01:49;;;;;;;;;5.00;1.25;;;;;;;;4957487;28;45456;-70
2021/12/11 01:04:19;;;;;;;;;1.75;1.50;;;;;;;;4964523;28;45449;-70
2021/12/11 01:06:51;;;;;;;;;1.00;1.00;;;;;;;;4957304;28;46399;-71
2021/12/11 01:09:27;;;;;;;;;2.00;2.00;;;;;;;;4952252;28;45881;-71
2021/12/11 01:11:59;;;;;;;;;2.00;0.75;;;;;;;;4957644;28;45390;-71
2021/12/11 01:14:35;;;;;;;;;2.50;2.50;;;;;;;;4956732;28;45451;-71
2021/12/11 01:17:05;;;;;;;;;3.25;1.00;;;;;;;;4957699;28;47116;-71
2021/12/11 01:19:36;;;;;;;;;1.75;1.00;;;;;;;;4955680;28;45875;-71
2021/12/11 01:22:09;;;;;;;;;1.00;1.00;;;;;;;;4957163;28;45500;-71
2021/12/11 01:24:45;;;;;;;;;2.25;1.50;;;;;;;;4956396;28;45637;-71
2021/12/11 01:27:12;;;;;;;;;1.75;1.75;;;;;;;;4959369;28;46220;-71
2021/12/11 01:29:38;;;;;;;;;2.00;0.75;;;;;;;;4956439;28;45394;-71
2021/12/11 01:32:04;;;;;;;;;1.00;1.00;;;;;;;;4959775;28;45392;-71
2021/12/11 01:34:31;;;;;;;;;1.75;1.75;;;;;;;;4961221;28;45815;-71
2021/12/11 01:36:57;;;;;;;;;2.00;2.00;;;;;;;;4959032;28;47488;-71
2021/12/11 01:39:24;;;;;;;;;1.50;1.00;;;;;;;;4958075;28;45914;-71
2021/12/11 01:41:50;;;;;;;;;4.25;1.00;;;;;;;;4959408;28;45420;-71
2021/12/11 01:44:18;;;;;;;;;1.00;0.75;;;;;;;;4960467;28;45484;-71
2021/12/11 01:46:43;;;;;;;;;1.25;0.75;;;;;;;;4974312;28;48065;-71
2021/12/11 01:49:13;;;;;;;;;2.50;1.00;;;;;;;;4957015;28;45452;-71
2021/12/11 01:51:42;;;;;;;;;1.00;1.00;;;;;;;;4948898;28;45282;-71
2021/12/11 01:54:17;;;;;;;;;1.00;1.00;;;;;;;;4956440;28;45409;-71
2021/12/11 01:56:43;;;;;;;;;4.25;1.25;;;;;;;;4962459;28;47347;-71
2021/12/11 01:59:17;;;;;;;;;4.00;3.25;;;;;;;;4959956;28;45921;-71
2021/12/11 02:02:06;;;;;;;;;5.25;1.00;;;;;;;;4956448;28;45525;-71
2021/12/11 02:04:34;;;;;;;;;1.75;1.25;;;;;;;;4960599;28;45598;-71
2021/12/11 02:07:01;;;;;;;;;3.25;1.00;;;;;;;;4956481;28;46437;-71
2021/12/11 02:09:28;;;;;;;;;1.00;1.00;;;;;;;;4962036;28;45526;-71
2021/12/11 02:12:03;;;;;;;;;5.00;2.00;;;;;;;;4958536;28;45423;-71
2021/12/11 02:14:35;;;;;;;;;4.50;1.00;;;;;;;;4957248;28;45630;-71
2021/12/11 02:17:02;;;;;;;;;3.75;1.50;;;;;;;;4958073;28;46588;-71
2021/12/11 02:19:33;;;;;;;;;5.25;1.25;;;;;;;;4957295;28;45854;-71
2021/12/11 02:22:01;;;;;;;;;1.50;1.00;;;;;;;;4956375;28;45468;-71
2021/12/11 02:24:31;;;;;;;;;1.00;1.00;;;;;;;;4963739;28;45651;-71
2021/12/11 02:26:56;;;;;;;;;8.75;2.50;;;;;;;;4958731;28;45751;-71
2021/12/11 02:29:30;;;;;;;;;1.00;0.25;;;;;;;;4958134;28;45561;-71
2021/12/11 02:31:58;;;;;;;;;1.00;1.00;;;;;;;;4954845;28;45300;-71
2021/12/11 02:34:23;;;;;;;;;3.25;2.00;;;;;;;;4957611;28;45735;-71
2021/12/11 02:36:54;;;;;;;;;0.67;0.67;;;;;;;;4956117;28;46276;-71
2021/12/11 02:39:26;;;;;;;;;4.00;0.75;;;;;;;;4961006;28;45487;-71
2021/12/11 02:42:00;;;;;;;;;1.50;1.00;;;;;;;;4954956;28;45437;-71
2021/12/11 02:44:34;;;;;;;;;6.25;1.75;;;;;;;;4955720;28;45444;-71
2021/12/11 02:47:06;;;;;;;;;1.00;1.00;;;;;;;;4959328;28;46387;-71
2021/12/11 02:49:41;;;;;;;;;1.00;1.00;;;;;;;;4954425;28;45851;-71
2021/12/11 02:52:09;;;;;;;;;1.50;1.50;;;;;;;;4955680;28;45663;-71
2021/12/11 02:54:40;;;;;;;;;1.00;1.00;;;;;;;;4956275;28;45395;-71
2021/12/11 02:57:09;;;;;;;;;7.00;1.50;;;;;;;;4958887;28;46235;-71
2021/12/11 02:59:40;;;;;;;;;1.00;1.00;;;;;;;;4955929;28;45449;-70
2021/12/11 03:02:12;;;;;;;;;0.50;0.50;;;;;;;;4954321;28;45345;-71
2021/12/11 03:04:46;;;;;;;;;1.25;1.00;;;;;;;;4960271;28;45515;-71
2021/12/11 03:07:13;;;;;;;;;1.00;1.00;;;;;;;;4955263;28;46182;-71
2021/12/11 03:09:41;;;;;;;;;1.00;1.00;;;;;;;;4957669;28;45588;-71
2021/12/11 03:12:08;;;;;;;;;3.00;3.00;;;;;;;;4955791;28;45617;-71
2021/12/11 03:14:33;;;;;;;;;2.00;2.00;;;;;;;;4962624;28;45507;-71
2021/12/11 03:16:59;;;;;;;;;2.67;1.67;;;;;;;;4962590;28;46723;-71
2021/12/11 03:19:25;;;;;;;;;2.00;0.25;;;;;;;;4956732;28;45464;-71
2021/12/11 03:21:52;;;;;;;;;1.00;1.00;;;;;;;;4954676;28;45424;-71
2021/12/11 03:24:18;;;;;;;;;4.25;1.00;;;;;;;;4957323;28;45491;-70
2021/12/11 03:26:45;;;;;;;;;5.00;2.00;;;;;;;;4963146;28;46733;-71
2021/12/11 03:29:10;;;;;;;;;5.25;1.00;;;;;;;;4965043;28;45835;-71
2021/12/11 03:31:37;;;;;;;;;1.50;1.00;;;;;;;;4961827;28;46811;-71
2021/12/11 03:34:04;;;;;;;;;2.50;1.00;;;;;;;;4956499;28;45330;-71
2021/12/11 03:36:32;;;;;;;;;1.00;1.00;;;;;;;;4955659;28;46365;-71
2021/12/11 03:39:04;;;;;;;;;1.75;0.00;;;;;;;;4959544;28;45796;-71
2021/12/11 03:41:29;;;;;;;;;2.00;1.00;;;;;;;;4955499;28;45544;-70
2021/12/11 03:43:55;;;;;;;;;1.00;1.00;;;;;;;;4954975;28;45468;-71
2021/12/11 03:46:20;;;;;;;;;3.67;2.00;;;;;;;;4955306;28;45468;-71
2021/12/11 03:48:48;;;;;;;;;3.00;1.00;;;;;;;;4960693;28;45433;-71
2021/12/11 03:51:15;;;;;;;;;4.00;1.75;;;;;;;;4955754;28;45368;-71
2021/12/11 03:53:41;;;;;;;;;1.00;1.00;;;;;;;;4955145;28;45353;-71
2021/12/11 03:56:09;;;;;;;;;2.00;2.00;;;;;;;;4960340;28;47523;-71
2021/12/11 03:58:35;;;;;;;;;0.75;0.75;;;;;;;;4958836;28;45494;-71
2021/12/11 04:01:08;;;;;;;;;2.00;0.75;;;;;;;;4958819;28;45695;-71
2021/12/11 04:03:35;;;;;;;;;1.50;1.00;;;;;;;;4959989;28;45536;-71
2021/12/11 04:06:02;;;;;;;;;2.00;2.00;;;;;;;;4958773;28;45444;-71
2021/12/11 04:08:30;;;;;;;;;1.25;1.25;;;;;;;;4971881;28;45460;-72
2021/12/11 04:10:56;;;;;;;;;2.00;1.00;;;;;;;;4962991;28;45403;-71
2021/12/11 04:13:21;;;;;;;;;5.75;0.25;;;;;;;;4958156;28;45309;-71
2021/12/11 04:15:48;;;;;;;;;1.00;1.00;;;;;;;;4957759;28;46480;-71
2021/12/11 04:18:13;;;;;;;;;4.00;1.00;;;;;;;;4967240;28;45762;-71
2021/12/11 04:20:41;;;;;;;;;1.00;1.00;;;;;;;;4959243;28;45475;-71
2021/12/11 04:23:07;;;;;;;;;4.50;2.00;;;;;;;;4965319;28;45454;-71
2021/12/11 04:25:33;;;;;;;;;0.50;0.25;;;;;;;;4965615;28;45475;-71
2021/12/11 04:27:59;;;;;;;;;0.00;0.00;;;;;;;;4961485;28;45345;-71
2021/12/11 04:30:26;;;;;;;;;0.75;0.75;;;;;;;;4957046;28;45361;-71
2021/12/11 04:32:51;;;;;;;;;5.75;0.50;;;;;;;;4964337;28;45432;-71
2021/12/11 04:35:18;;;;;;;;;1.50;1.00;;;;;;;;4958321;28;46430;-71
2021/12/11 04:37:43;;;;;;;;;4.75;2.50;;;;;;;;4957863;28;45936;-71
2021/12/11 04:40:14;;;;;;;;;2.00;2.00;;;;;;;;4959025;28;45444;-71
2021/12/11 04:42:53;;;;;;;;;5.50;1.25;;;;;;;;4957265;28;45502;-71
2021/12/11 04:45:22;;;;;;;;;4.00;2.00;;;;;;;;4969877;28;47505;-71
2021/12/11 04:48:00;;;;;;;;;9.00;2.50;;;;;;;;4958841;28;45874;-71
2021/12/11 04:50:38;;;;;;;;;9.25;2.50;;;;;;;;4960965;28;45768;-71
2021/12/11 04:53:09;;;;;;;;;4.75;3.50;;;;;;;;4961393;28;45368;-71
2021/12/11 04:58:24;;;;;;;;;3.00;2.00;;;;;;;;4957630;28;46083;-71
2021/12/11 05:06:46;;;;;;;;;4.00;2.00;;;;;;;;4918001;28;46503;-71
2021/12/11 05:10:00;;;;;;;;;3.00;2.00;;;;;;;;4921040;28;45404;-71
2021/12/11 05:12:11;;;;;;;;;0.50;0.50;;;;;;;;4911278;28;45343;-71
2021/12/11 05:14:36;;;;;;;;;4.50;1.75;;;;;;;;4927794;28;45557;-71
2021/12/11 05:17:03;;;;;;;;;2.00;1.75;;;;;;;;4920252;28;46685;-71
2021/12/11 05:19:28;;;;;;;;;4.00;2.00;;;;;;;;4918198;28;45275;-71
2021/12/11 05:21:53;;;;;;;;;2.00;1.00;;;;;;;;4929430;28;45462;-71
2021/12/11 05:24:20;;;;;;;;;2.00;2.00;;;;;;;;4932108;28;45437;-71
2021/12/11 05:26:45;;;;;;;;;4.50;1.00;;;;;;;;4920694;28;46160;-71
2021/12/11 05:29:11;;;;;;;;;1.00;1.00;;;;;;;;4919370;28;45356;-71
2021/12/11 05:31:36;;;;;;;;;6.50;1.00;;;;;;;;4915578;28;45499;-71
2021/12/11 05:34:02;;;;;;;;;5.25;1.50;;;;;;;;4925696;28;45496;-72
2021/12/11 05:36:31;;;;;;;;;2.00;1.00;;;;;;;;4931815;28;46374;-71
2021/12/11 05:38:56;;;;;;;;;3.50;0.50;;;;;;;;4971045;28;45846;-71
2021/12/11 05:41:23;;;;;;;;;2.00;1.00;;;;;;;;4960004;28;45415;-72
2021/12/11 05:43:48;;;;;;;;;4.25;1.50;;;;;;;;4963139;28;45277;-71
2021/12/11 05:46:15;;;;;;;;;1.75;1.00;;;;;;;;4956398;28;46586;-71
2021/12/11 05:48:41;;;;;;;;;2.25;1.50;;;;;;;;4957517;28;45578;-71
2021/12/11 05:51:09;;;;;;;;;2.00;0.50;;;;;;;;4972299;28;45703;-71
2021/12/11 05:53:34;;;;;;;;;3.00;3.00;;;;;;;;4958056;28;45385;-71
2021/12/11 05:56:03;;;;;;;;;2.00;2.00;;;;;;;;4957027;28;47017;-71
2021/12/11 06:01:11;;;;;;;;;4.50;1.50;;;;;;;;4955388;28;45819;-71
2021/12/11 06:03:37;;;;;;;;;4.25;2.50;;;;;;;;4966204;28;45482;-71
2021/12/11 06:06:03;;;;;;;;;1.00;1.00;;;;;;;;4956838;28;45361;-71
2021/12/11 06:08:28;;;;;;;;;1.75;0.25;;;;;;;;4959177;28;45383;-71
2021/12/11 06:10:53;;;;;;;;;4.00;1.00;;;;;;;;4958477;28;45404;-71
2021/12/11 06:13:18;;;;;;;;;2.67;2.67;;;;;;;;4959530;28;45369;-71
2021/12/11 06:15:44;;;;;;;;;1.33;1.00;;;;;;;;4968505;28;45421;-71
2021/12/11 06:18:15;;;;;;;;;3.50;1.00;;;;;;;;4957312;28;45403;-71
2021/12/11 06:20:40;;;;;;;;;1.75;1.00;;;;;;;;4956245;28;45227;-71
2021/12/11 06:23:05;;;;;;;;;8.00;0.00;;;;;;;;4957839;28;45202;-71
2021/12/11 06:25:31;;;;;;;;;2.50;0.75;;;;;;;;4956449;28;45556;-71
2021/12/11 06:27:56;;;;;;;;;2.50;1.50;;;;;;;;4962547;28;45531;-72
2021/12/11 06:30:22;;;;;;;;;3.00;1.75;;;;;;;;4958064;28;45460;-71
2021/12/11 06:32:48;;;;;;;;;1.00;1.00;;;;;;;;4960347;28;45503;-71
2021/12/11 06:35:27;;;;;;;;;2.50;0.75;;;;;;;;4956925;28;45655;-71
2021/12/11 06:37:52;;;;;;;;;2.00;2.00;;;;;;;;4956071;28;45325;-71
2021/12/11 06:40:18;;;;;;;;;1.00;1.00;;;;;;;;4956677;28;45563;-71
2021/12/11 06:42:43;;;;;;;;;7.25;4.25;;;;;;;;4956272;28;45548;-71
2021/12/11 06:45:08;;;;;;;;;4.67;1.00;;;;;;;;4956293;28;46215;-71
2021/12/11 06:47:34;;;;;;;;;1.00;1.00;;;;;;;;4955947;28;48121;-71
2021/12/11 06:49:59;;;;;;;;;2.00;1.00;;;;;;;;4956366;28;45604;-71
2021/12/11 06:52:25;;;;;;;;;2.00;1.00;;;;;;;;4957525;28;45334;-71
2021/12/11 06:54:51;;;;;;;;;1.00;1.00;;;;;;;;4955406;28;46238;-71
2021/12/11 06:57:16;;;;;;;;;6.25;2.50;;;;;;;;4956489;28;45475;-71
2021/12/11 06:59:42;;;;;;;;;1.25;1.25;;;;;;;;4959917;28;45426;-71
2021/12/11 07:02:07;;;;;;;;;5.25;2.00;;;;;;;;4956513;28;46599;-71
2021/12/11 07:04:33;;;;;;;;;3.50;1.50;;;;;;;;4965471;28;46624;-71
2021/12/11 07:06:58;;;;;;;;;4.50;3.50;;;;;;;;4955909;28;45354;-71
2021/12/11 07:09:25;;;;;;;;;4.67;4.00;;;;;;;;4959246;28;45314;-71
2021/12/11 07:11:52;;;;;;;;;6.25;2.00;;;;;;;;4954358;28;45439;-71
2021/12/11 07:14:18;;;;;;;;;5.00;3.00;;;;;;;;4956999;28;47320;-71
2021/12/11 07:16:44;;;;;;;;;5.00;2.00;;;;;;;;4955626;28;45338;-71
2021/12/11 07:19:09;;;;;;;;;7.75;4.00;;;;;;;;4956936;28;45430;-71
2021/12/11 07:21:35;;;;;;;;;7.50;4.00;;;;;;;;4955704;28;45313;-71
2021/12/11 07:24:02;;;;;;;;;7.25;4.50;;;;;;;;4958080;28;45508;-71
2021/12/11 07:26:32;;;;;;;;;7.50;5.50;;;;;;;;4956113;28;45495;-71
2021/12/11 07:28:59;;;;;;;;;2.50;2.00;;;;;;;;4953083;28;45289;-71
2021/12/11 07:31:24;;;;;;;;;4.75;3.00;;;;;;;;4955525;28;45387;-71
2021/12/11 07:33:51;;;;;;;;;5.00;3.50;;;;;;;;4965537;28;45469;-71
2021/12/11 07:36:16;;;;;;;;;2.00;2.00;;;;;;;;4966021;28;45251;-71
2021/12/11 07:38:42;;;;;;;;;8.00;2.00;;;;;;;;4962872;28;45427;-71
2021/12/11 07:41:08;;;;;;;;;5.00;2.00;;;;;;;;4959000;28;45512;-71
2021/12/11 07:43:35;;;;;;;;;12.25;11.00;;;;;;;;4955762;28;49613;-71
2021/12/11 07:46:01;;;;;;;;;20.50;14.75;;;;;;;;4945004;28;46242;-71
2021/12/11 07:48:27;;;;;;;;;19.25;12.00;;;;;;;;4955895;28;45567;-71
2021/12/11 07:50:52;;;;;;;;;14.25;13.00;;;;;;;;4955508;28;47196;-71
2021/12/11 07:53:18;;;;;;;;;16.25;13.75;;;;;;;;4969141;28;47583;-71
2021/12/11 07:55:44;;;;;;;;;9.00;9.00;;;;;;;;4955179;28;45407;-71
2021/12/11 07:58:09;;;;;;;;;11.75;8.00;;;;;;;;4947871;28;45593;-74
2021/12/11 08:00:37;;;;;;;;;13.25;12.50;;;;;;;;4945529;28;45532;-73
2021/12/11 08:03:03;;;;;;;;;19.00;13.50;;;;;;;;4948924;28;46783;-73
2021/12/11 08:05:29;;;;;;;;;14.75;10.75;;;;;;;;4956292;28;45962;-72
2021/12/11 08:07:55;;;;;;;;;11.75;8.75;;;;;;;;4954189;28;45503;-73
2021/12/11 08:10:23;;;;;;;;;13.00;8.00;;;;;;;;4958227;28;45452;-73
2021/12/11 08:12:48;;;;;;;;;10.75;8.25;;;;;;;;4943087;28;45448;-72
2021/12/11 08:15:14;;;;;;;;;12.00;8.25;;;;;;;;4955472;28;45322;-72
2021/12/11 08:17:39;;;;;;;;;15.00;11.75;;;;;;;;4954568;28;45408;-72
2021/12/11 08:20:06;;;;;;;;;6.50;6.25;;;;;;;;4955614;28;45595;-72
2021/12/11 08:22:32;;;;;;;;;8.00;8.00;;;;;;;;4955260;28;46654;-72
2021/12/11 08:24:57;;;;;;;;;12.00;8.33;;;;;;;;4957044;28;45429;-72
2021/12/11 08:27:22;;;;;;;;;12.00;8.67;;;;;;;;4958825;28;45364;-72
2021/12/11 08:29:49;;;;;;;;;13.75;9.00;;;;;;;;4955209;28;45672;-72
2021/12/11 08:32:16;;;;;;;;;13.00;8.50;;;;;;;;4952313;28;46914;-72
2021/12/11 08:34:42;;;;;;;;;10.00;6.25;;;;;;;;4955756;28;45579;-71
2021/12/11 08:37:09;;;;;;;;;7.00;6.00;;;;;;;;4951491;28;45509;-71
2021/12/11 08:39:34;;;;;;;;;15.75;10.00;;;;;;;;4955554;28;45607;-72
2021/12/11 08:42:02;;;;;;;;;11.50;6.75;;;;;;;;4959619;28;46302;-72
2021/12/11 08:44:29;;;;;;;;;16.50;11.75;;;;;;;;4967266;28;45365;-72
2021/12/11 08:47:00;;;;;;;;;12.00;10.00;;;;;;;;4961151;28;45435;-72
2021/12/11 08:49:27;;;;;;;;;11.50;11.50;;;;;;;;4954838;28;45487;-71
2021/12/11 08:51:57;;;;;;;;;13.25;8.00;;;;;;;;4972006;28;48105;-71
2021/12/11 08:54:23;;;;;;;;;15.25;11.00;;;;;;;;4971917;28;45728;-71
2021/12/11 08:56:49;;;;;;;;;12.00;10.50;;;;;;;;4959240;28;45664;-72
2021/12/11 08:59:17;;;;;;;;;9.25;9.25;;;;;;;;4959225;28;45494;-71
2021/12/11 09:01:51;;;;;;;;;11.00;8.25;;;;;;;;4962980;28;46645;-71
2021/12/11 09:04:26;;;;;;;;;10.50;7.25;;;;;;;;4946899;28;45369;-71
2021/12/11 09:06:51;;;;;;;;;12.75;9.00;;;;;;;;4957826;28;45563;-71
2021/12/11 09:09:19;;;;;;;;;11.00;9.25;;;;;;;;4953534;28;45452;-71
2021/12/11 09:11:55;;;;;;;;;8.75;8.75;;;;;;;;4965947;28;45913;-72
2021/12/11 09:14:24;;;;;;;;;9.25;7.25;;;;;;;;4959088;28;45815;-71
2021/12/11 09:16:53;;;;;;;;;13.75;8.00;;;;;;;;4957717;28;45606;-71
2021/12/11 09:19:22;;;;;;;;;9.75;9.50;;;;;;;;4957981;28;45472;-72
2021/12/11 09:21:47;;;;;;;;;9.75;9.00;;;;;;;;4956929;28;46066;-71
2021/12/11 09:24:13;;;;;;;;;9.00;9.00;;;;;;;;4961103;28;45369;-71
2021/12/11 09:26:54;;;;;;;;;16.00;11.00;;;;;;;;4960897;28;45660;-72
2021/12/11 09:29:28;;;;;;;;;11.75;10.25;;;;;;;;4958154;28;45341;-72
2021/12/11 09:31:57;;;;;;;;;10.00;9.00;;;;;;;;4962131;28;46106;-71
2021/12/11 09:34:23;;;;;;;;;14.75;7.25;;;;;;;;4957201;28;45832;-72
2021/12/11 09:36:50;;;;;;;;;11.00;9.25;;;;;;;;4950616;28;45598;-72
2021/12/11 09:39:15;;;;;;;;;9.50;7.25;;;;;;;;4953256;28;45495;-72
2021/12/11 09:41:40;;;;;;;;;43.25;36.25;;;;;;;;4963565;28;45411;-71
2021/12/11 09:44:10;;;;;;;;;15.00;12.67;;;;;;;;4972622;28;45746;-73
2021/12/11 09:46:45;;;;;;;;;15.75;9.75;;;;;;;;4953386;28;45576;-74
2021/12/11 09:49:13;;;;;;;;;11.00;9.75;;;;;;;;4958641;28;45397;-72
2021/12/11 09:51:42;;;;;;;;;14.50;11.25;;;;;;;;4955781;28;46621;-71
2021/12/11 09:54:11;;;;;;;;;11.50;9.00;;;;;;;;4959899;28;45420;-72
2021/12/11 09:56:40;;;;;;;;;13.00;11.50;;;;;;;;4957295;28;45428;-71
2021/12/11 09:59:09;;;;;;;;;13.00;12.75;;;;;;;;4960557;28;45526;-72
2021/12/11 10:01:37;;;;;;;;;15.00;11.00;;;;;;;;4962854;28;45581;-73
2021/12/11 10:04:05;;;;;;;;;10.75;10.00;;;;;;;;4956895;28;45776;-71
2021/12/11 10:06:42;;;;;;;;;15.00;11.00;;;;;;;;4954392;28;45480;-72
2021/12/11 10:09:19;;;;;;;;;21.00;16.00;;;;;;;;4956654;28;45427;-72
2021/12/11 10:11:47;;;;;;;;;13.00;12.25;;;;;;;;4955747;28;46732;-72
2021/12/11 10:14:14;;;;;;;;;16.50;13.25;;;;;;;;4961445;28;45487;-73
2021/12/11 10:16:44;;;;;;;;;16.25;12.00;;;;;;;;4963740;28;45446;-72
2021/12/11 10:19:10;;;;;;;;;12.25;9.50;;;;;;;;4957857;28;45421;-73
2021/12/11 10:21:38;;;;;;;;;11.50;10.50;;;;;;;;4957009;28;47387;-72
2021/12/11 10:24:07;;;;;;;;;15.00;11.00;;;;;;;;4965039;28;45908;-74
2021/12/11 10:26:32;;;;;;;;;16.25;12.50;;;;;;;;4957357;28;45369;-73
2021/12/11 10:28:59;;;;;;;;;9.25;8.00;;;;;;;;4958559;28;45574;-73
2021/12/11 10:31:35;;;;;;;;;12.25;10.00;;;;;;;;4956241;28;45743;-73
2021/12/11 10:34:04;;;;;;;;;12.50;9.75;;;;;;;;4959848;28;45823;-73
2021/12/11 10:36:31;;;;;;;;;10.00;10.00;;;;;;;;4967729;28;45602;-73
2021/12/11 10:38:57;;;;;;;;;12.00;7.75;;;;;;;;4956637;28;45433;-72
2021/12/11 10:41:24;;;;;;;;;10.00;9.50;;;;;;;;4956986;28;46542;-73
2021/12/11 10:43:53;;;;;;;;;10.00;7.50;;;;;;;;4956154;28;45349;-72
2021/12/11 10:46:19;;;;;;;;;13.50;10.25;;;;;;;;4961982;28;45779;-72
2021/12/11 10:48:46;;;;;;;;;14.00;11.00;;;;;;;;4961250;28;45602;-72
2021/12/11 10:51:15;;;;;;;;;10.00;8.75;;;;;;;;4956504;28;45423;-72
2021/12/11 10:53:42;;;;;;;;;13.50;9.00;;;;;;;;4956909;28;45349;-72
2021/12/11 10:56:08;;;;;;;;;16.00;13.50;;;;;;;;4957437;28;46232;-70
2021/12/11 10:58:36;;;;;;;;;9.50;9.50;;;;;;;;4956851;28;45400;-73
2021/12/11 11:01:08;;;;;;;;;9.75;9.00;;;;;;;;4944348;28;45487;-72
2021/12/11 11:03:35;;;;;;;;;15.25;10.25;;;;;;;;4956263;28;45800;-73
2021/12/11 11:06:01;;;;;;;;;9.25;4.25;;;;;;;;4955716;28;45240;-73
2021/12/11 11:08:29;;;;;;;;;11.25;8.25;;;;;;;;4970859;28;45603;-71
2021/12/11 11:10:56;;;;;;;;;12.75;10.50;;;;;;;;4956721;28;45911;-72
2021/12/11 11:13:22;;;;;;;;;14.00;10.25;;;;;;;;4955542;28;46049;-72
2021/12/11 11:15:48;;;;;;;;;8.00;8.00;;;;;;;;4951142;28;45437;-72
2021/12/11 11:18:15;;;;;;;;;13.25;9.00;;;;;;;;4959354;28;45539;-73
2021/12/11 11:20:49;;;;;;;;;11.00;8.00;;;;;;;;4965298;28;46079;-72
2021/12/11 11:23:14;;;;;;;;;8.00;5.75;;;;;;;;4961998;28;45785;-72
2021/12/11 11:25:41;;;;;;;;;70.25;54.00;;;;;;;;4960654;28;47520;-72
2021/12/11 11:28:09;;;;;;;;;14.25;12.25;;;;;;;;4965613;28;45516;-73
2021/12/11 11:30:38;;;;;;;;;7.50;4.75;;;;;;;;4954758;28;45422;-72
2021/12/11 11:33:05;;;;;;;;;9.00;8.00;;;;;;;;4956125;28;45846;-72
2021/12/11 11:35:32;;;;;;;;;7.00;6.50;;;;;;;;4956018;28;45803;-72
2021/12/11 11:37:58;;;;;;;;;12.00;8.50;;;;;;;;4958470;28;45491;-72
2021/12/11 11:40:26;;;;;;;;;11.50;8.00;;;;;;;;4957286;28;45574;-72
2021/12/11 11:42:52;;;;;;;;;7.75;6.50;;;;;;;;4956540;28;46158;-71
2021/12/11 11:45:17;;;;;;;;;5.75;5.75;;;;;;;;4968662;28;45510;-72
2021/12/11 11:47:43;;;;;;;;;9.00;5.67;;;;;;;;4952089;28;45751;-72
2021/12/11 11:50:11;;;;;;;;;9.50;6.00;;;;;;;;4951165;28;45405;-72
2021/12/11 11:52:36;;;;;;;;;9.50;6.00;;;;;;;;4966443;28;45915;-73
2021/12/11 11:55:06;;;;;;;;;9.00;7.25;;;;;;;;4956993;28;45937;-72
2021/12/11 11:57:33;;;;;;;;;8.25;8.25;;;;;;;;4956502;28;45976;-71
2021/12/11 12:00:00;;;;;;;;;11.25;6.75;;;;;;;;4956370;28;47144;-72
2021/12/11 12:02:27;;;;;;;;;7.75;6.75;;;;;;;;4958612;28;45387;-72
2021/12/11 12:04:53;;;;;;;;;8.00;6.75;;;;;;;;4957883;28;45551;-72
2021/12/11 12:07:26;;;;;;;;;8.50;7.00;;;;;;;;4958203;28;45710;-72
2021/12/11 12:09:52;;;;;;;;;10.75;7.75;;;;;;;;4953281;28;45510;-73
2021/12/11 12:12:18;;;;;;;;;13.75;11.25;;;;;;;;4952278;28;45908;-72
2021/12/11 12:14:44;;;;;;;;;18.00;9.00;;;;;;;;4953940;28;45443;-71
2021/12/11 12:17:11;;;;;;;;;8.00;8.00;;;;;;;;4952556;28;45463;-72
2021/12/11 12:19:37;;;;;;;;;12.00;8.50;;;;;;;;4958157;28;45799;-72
2021/12/11 12:22:04;;;;;;;;;11.50;11.25;;;;;;;;4959849;28;45448;-72
2021/12/11 12:24:31;;;;;;;;;13.75;9.00;;;;;;;;4957909;28;45581;-71
2021/12/11 12:26:57;;;;;;;;;10.00;10.00;;;;;;;;4959097;28;45694;-71
2021/12/11 12:29:22;;;;;;;;;7.50;7.00;;;;;;;;4956663;28;45645;-72
2021/12/11 12:31:53;;;;;;;;;12.33;8.33;;;;;;;;4957681;28;45496;-72
2021/12/11 12:34:19;;;;;;;;;13.75;10.00;;;;;;;;4957933;28;45511;-71
2021/12/11 12:36:45;;;;;;;;;8.00;6.00;;;;;;;;4967566;28;45374;-72
2021/12/11 12:39:12;;;;;;;;;8.00;6.50;;;;;;;;4958404;28;46184;-71
2021/12/11 12:41:39;;;;;;;;;13.75;11.25;;;;;;;;4958975;28;45353;-71
2021/12/11 12:46:41;;;;;;;;;7.00;6.00;;;;;;;;4955893;28;45669;-72
2021/12/11 12:49:06;;;;;;;;;5.00;5.00;;;;;;;;4956437;28;46768;-72
2021/12/11 12:51:33;;;;;;;;;12.75;6.50;;;;;;;;4957313;28;45457;-71
2021/12/11 12:53:59;;;;;;;;;4.75;4.25;;;;;;;;4958315;28;45293;-72
2021/12/11 12:56:30;;;;;;;;;11.25;9.00;;;;;;;;4957818;28;45436;-72
2021/12/11 12:58:55;;;;;;;;;10.25;8.00;;;;;;;;4956400;28;45969;-72
2021/12/11 13:01:23;;;;;;;;;9.00;9.00;;;;;;;;4965976;28;45541;-72
2021/12/11 13:03:49;;;;;;;;;8.75;8.00;;;;;;;;4955111;28;45586;-72
2021/12/11 13:06:18;;;;;;;;;9.00;8.50;;;;;;;;4957055;28;45523;-71
2021/12/11 13:08:46;;;;;;;;;9.00;7.50;;;;;;;;4955736;28;47033;-71
2021/12/11 13:11:15;;;;;;;;;15.75;11.75;;;;;;;;4956179;28;45483;-72
2021/12/11 13:13:40;;;;;;;;;12.25;8.00;;;;;;;;4957524;28;45425;-71
2021/12/11 13:16:10;;;;;;;;;13.50;10.00;;;;;;;;4955985;28;45681;-71
2021/12/11 13:18:38;;;;;;;;;16.00;9.25;;;;;;;;4956418;28;46438;-71
2021/12/11 13:21:14;;;;;;;;;11.00;7.75;;;;;;;;4957506;28;45987;-71
2021/12/11 13:23:42;;;;;;;;;13.50;9.25;;;;;;;;4957808;28;45514;-71
2021/12/11 13:26:09;;;;;;;;;12.25;8.50;;;;;;;;4956286;28;45499;-71
2021/12/11 13:28:37;;;;;;;;;15.00;10.50;;;;;;;;4955173;28;46386;-71
2021/12/11 13:31:07;;;;;;;;;10.00;8.25;;;;;;;;4956057;28;45353;-71
2021/12/11 13:33:33;;;;;;;;;39.50;34.75;;;;;;;;4955986;28;45623;-71
2021/12/11 13:35:59;;;;;;;;;13.50;9.00;;;;;;;;4950807;28;45519;-72
2021/12/11 13:38:25;;;;;;;;;8.00;7.75;;;;;;;;4954990;28;45457;-71
2021/12/11 13:40:54;;;;;;;;;9.75;9.00;;;;;;;;4954269;28;46023;-71
2021/12/11 13:43:20;;;;;;;;;11.50;7.50;;;;;;;;4956210;28;45464;-74
2021/12/11 13:45:47;;;;;;;;;13.00;7.50;;;;;;;;4956449;28;45274;-73
2021/12/11 13:48:13;;;;;;;;;18.25;14.75;;;;;;;;4956463;28;46572;-71
2021/12/11 13:50:50;;;;;;;;;15.00;9.00;;;;;;;;4956550;28;45507;-71
2021/12/11 13:53:16;;;;;;;;;14.75;7.75;;;;;;;;4951509;28;45729;-72
2021/12/11 13:55:43;;;;;;;;;12.25;9.50;;;;;;;;4953485;28;45470;-72
2021/12/11 13:58:08;;;;;;;;;8.00;6.75;;;;;;;;4954593;28;45555;-71
2021/12/11 14:00:35;;;;;;;;;13.75;11.25;;;;;;;;4954731;28;45492;-71
2021/12/11 14:03:00;;;;;;;;;8.25;7.00;;;;;;;;4951956;28;45473;-70
2021/12/11 14:05:27;;;;;;;;;11.67;11.67;;;;;;;;4954198;28;45502;-71
2021/12/11 14:07:52;;;;;;;;;15.25;11.25;;;;;;;;4955038;28;46069;-71
2021/12/11 14:10:27;;;;;;;;;15.33;15.33;;;;;;;;4951486;28;45498;-71
2021/12/11 14:12:53;;;;;;;;;13.00;12.00;;;;;;;;4955358;28;45369;-71
2021/12/11 14:15:19;;;;;;;;;23.50;17.50;;;;;;;;4954340;28;45340;-71
2021/12/11 14:17:45;;;;;;;;;18.75;15.00;;;;;;;;4952584;28;47014;-71
2021/12/11 14:20:11;;;;;;;;;15.25;13.75;;;;;;;;4952019;28;45459;-71
2021/12/11 14:22:37;;;;;;;;;18.25;13.75;;;;;;;;4952514;28;45339;-71
2021/12/11 14:25:04;;;;;;;;;12.50;11.00;;;;;;;;4953477;28;45292;-71
2021/12/11 14:27:29;;;;;;;;;19.50;14.25;;;;;;;;4945918;28;46827;-71
2021/12/11 14:29:55;;;;;;;;;16.33;16.33;;;;;;;;4953105;28;45550;-71
2021/12/11 14:32:23;;;;;;;;;13.50;11.00;;;;;;;;4953605;28;45425;-71
2021/12/11 14:34:48;;;;;;;;;14.50;13.75;;;;;;;;4956235;28;45479;-71
2021/12/11 14:37:14;;;;;;;;;22.50;16.00;;;;;;;;4956115;28;45511;-71
2021/12/11 14:39:45;;;;;;;;;17.33;13.00;;;;;;;;4955242;28;45451;-71
2021/12/11 14:42:11;;;;;;;;;13.25;11.75;;;;;;;;4953338;28;45326;-71
2021/12/11 14:44:36;;;;;;;;;27.00;18.00;;;;;;;;4955821;28;45651;-71
2021/12/11 14:47:04;;;;;;;;;22.00;16.00;;;;;;;;4955811;28;45480;-71
2021/12/11 14:49:30;;;;;;;;;17.75;12.00;;;;;;;;4956007;28;45832;-71
2021/12/11 14:51:56;;;;;;;;;13.00;11.00;;;;;;;;4956099;28;45394;-71